<?xml version="1.0" encoding="UTF-8" standalone="no" ?>
<gpx xmlns="http://www.topografix.com/GPX/1/1" xmlns:xsi="http://www.w3.org/2001/XMLSchema-instance" xsi:schemaLocation="http://www.topografix.com/GPX/1/1 http://www.topografix.com/GPX/1/1/gpx.xsd" version="1.1" creator="VisuGPX - https://www.visugpx.com">
  <metadata>
    <name>ARQUES LA SEYNE SUR MER 1497 KM</name>
    <desc><![CDATA[Rando de Arques dans le Pas de Calais jusque La Seyne sur Mer dans le Var, 1497 km]]></desc>
  </metadata>
  <trk>
    <name><![CDATA[49 - LE TEIL LE MOURE 19.6 KM]]></name>
    <extensions>
      <line xmlns="http://www.topografix.com/GPX/gpx_style/0/2">
        <color>880088</color>
        <width>4</width>
      </line>
    </extensions>
    <trkseg>
      <trkpt lat="44.54168" lon="4.68433">
        <ele>77</ele>
        <time>2021-12-14T09:36:39+01:00</time>
      </trkpt>
      <trkpt lat="44.5414" lon="4.68414">
        <ele>80</ele>
        <time>2021-12-14T09:36:44+01:00</time>
      </trkpt>
      <trkpt lat="44.5409" lon="4.68455">
        <ele>82</ele>
        <time>2021-12-14T09:36:49+01:00</time>
      </trkpt>
      <trkpt lat="44.54127" lon="4.68385">
        <ele>83</ele>
        <time>2021-12-14T09:36:54+01:00</time>
      </trkpt>
      <trkpt lat="44.54078" lon="4.6828">
        <ele>91</ele>
        <time>2021-12-14T09:36:59+01:00</time>
      </trkpt>
      <trkpt lat="44.54085" lon="4.68378">
        <ele>89</ele>
        <time>2021-12-14T09:37:04+01:00</time>
      </trkpt>
      <trkpt lat="44.53997" lon="4.68243">
        <ele>105</ele>
        <time>2021-12-14T09:37:09+01:00</time>
      </trkpt>
      <trkpt lat="44.53943" lon="4.68161">
        <ele>105</ele>
        <time>2021-12-14T09:37:14+01:00</time>
      </trkpt>
      <trkpt lat="44.53909" lon="4.68033">
        <ele>116</ele>
        <time>2021-12-14T09:37:19+01:00</time>
      </trkpt>
      <trkpt lat="44.53829" lon="4.67937">
        <ele>120</ele>
        <time>2021-12-14T09:37:24+01:00</time>
      </trkpt>
      <trkpt lat="44.53772" lon="4.67793">
        <ele>119</ele>
        <time>2021-12-14T09:37:29+01:00</time>
      </trkpt>
      <trkpt lat="44.53758" lon="4.67697">
        <ele>122</ele>
        <time>2021-12-14T09:37:34+01:00</time>
      </trkpt>
      <trkpt lat="44.53717" lon="4.67631">
        <ele>120</ele>
        <time>2021-12-14T09:37:39+01:00</time>
      </trkpt>
      <trkpt lat="44.53672" lon="4.6749">
        <ele>120</ele>
        <time>2021-12-14T09:37:44+01:00</time>
      </trkpt>
      <trkpt lat="44.5366" lon="4.67419">
        <ele>128</ele>
        <time>2021-12-14T09:37:49+01:00</time>
      </trkpt>
      <trkpt lat="44.53655" lon="4.67286">
        <ele>135</ele>
        <time>2021-12-14T09:37:54+01:00</time>
      </trkpt>
      <trkpt lat="44.5368" lon="4.67243">
        <ele>138</ele>
        <time>2021-12-14T09:37:59+01:00</time>
      </trkpt>
      <trkpt lat="44.53628" lon="4.67174">
        <ele>141</ele>
        <time>2021-12-14T09:38:04+01:00</time>
      </trkpt>
      <trkpt lat="44.53611" lon="4.67079">
        <ele>142</ele>
        <time>2021-12-14T09:38:09+01:00</time>
      </trkpt>
      <trkpt lat="44.53579" lon="4.67051">
        <ele>143</ele>
        <time>2021-12-14T09:38:14+01:00</time>
      </trkpt>
      <trkpt lat="44.53564" lon="4.66791">
        <ele>153</ele>
        <time>2021-12-14T09:38:19+01:00</time>
      </trkpt>
      <trkpt lat="44.53475" lon="4.66738">
        <ele>155</ele>
        <time>2021-12-14T09:38:24+01:00</time>
      </trkpt>
      <trkpt lat="44.53478" lon="4.66608">
        <ele>155</ele>
        <time>2021-12-14T09:38:29+01:00</time>
      </trkpt>
      <trkpt lat="44.53427" lon="4.6651">
        <ele>157</ele>
        <time>2021-12-14T09:38:34+01:00</time>
      </trkpt>
      <trkpt lat="44.53282" lon="4.66373">
        <ele>162</ele>
        <time>2021-12-14T09:38:39+01:00</time>
      </trkpt>
      <trkpt lat="44.53245" lon="4.66284">
        <ele>171</ele>
        <time>2021-12-14T09:38:44+01:00</time>
      </trkpt>
      <trkpt lat="44.53175" lon="4.66165">
        <ele>189</ele>
        <time>2021-12-14T09:38:49+01:00</time>
      </trkpt>
      <trkpt lat="44.53099" lon="4.66122">
        <ele>200</ele>
        <time>2021-12-14T09:38:54+01:00</time>
      </trkpt>
      <trkpt lat="44.53033" lon="4.66142">
        <ele>213</ele>
        <time>2021-12-14T09:38:59+01:00</time>
      </trkpt>
      <trkpt lat="44.53017" lon="4.66181">
        <ele>217</ele>
        <time>2021-12-14T09:39:04+01:00</time>
      </trkpt>
      <trkpt lat="44.53045" lon="4.66204">
        <ele>212</ele>
        <time>2021-12-14T09:39:09+01:00</time>
      </trkpt>
      <trkpt lat="44.53016" lon="4.66257">
        <ele>215</ele>
        <time>2021-12-14T09:39:14+01:00</time>
      </trkpt>
      <trkpt lat="44.52898" lon="4.66268">
        <ele>227</ele>
        <time>2021-12-14T09:39:19+01:00</time>
      </trkpt>
      <trkpt lat="44.52827" lon="4.66245">
        <ele>234</ele>
        <time>2021-12-14T09:39:24+01:00</time>
      </trkpt>
      <trkpt lat="44.52683" lon="4.65976">
        <ele>258</ele>
        <time>2021-12-14T09:39:29+01:00</time>
      </trkpt>
      <trkpt lat="44.52677" lon="4.65914">
        <ele>262</ele>
        <time>2021-12-14T09:39:34+01:00</time>
      </trkpt>
      <trkpt lat="44.52639" lon="4.65845">
        <ele>269</ele>
        <time>2021-12-14T09:39:39+01:00</time>
      </trkpt>
      <trkpt lat="44.52548" lon="4.65688">
        <ele>281</ele>
        <time>2021-12-14T09:39:44+01:00</time>
      </trkpt>
      <trkpt lat="44.52543" lon="4.65578">
        <ele>284</ele>
        <time>2021-12-14T09:39:49+01:00</time>
      </trkpt>
      <trkpt lat="44.52552" lon="4.65501">
        <ele>292</ele>
        <time>2021-12-14T09:39:54+01:00</time>
      </trkpt>
      <trkpt lat="44.52579" lon="4.6545">
        <ele>293</ele>
        <time>2021-12-14T09:39:59+01:00</time>
      </trkpt>
      <trkpt lat="44.52578" lon="4.65316">
        <ele>299</ele>
        <time>2021-12-14T09:40:04+01:00</time>
      </trkpt>
      <trkpt lat="44.52657" lon="4.65083">
        <ele>292</ele>
        <time>2021-12-14T09:40:09+01:00</time>
      </trkpt>
      <trkpt lat="44.52644" lon="4.64955">
        <ele>298</ele>
        <time>2021-12-14T09:40:14+01:00</time>
      </trkpt>
      <trkpt lat="44.52618" lon="4.64825">
        <ele>308</ele>
        <time>2021-12-14T09:40:19+01:00</time>
      </trkpt>
      <trkpt lat="44.52609" lon="4.64701">
        <ele>315</ele>
        <time>2021-12-14T09:40:24+01:00</time>
      </trkpt>
      <trkpt lat="44.52555" lon="4.64587">
        <ele>322</ele>
        <time>2021-12-14T09:40:29+01:00</time>
      </trkpt>
      <trkpt lat="44.52433" lon="4.64434">
        <ele>335</ele>
        <time>2021-12-14T09:40:34+01:00</time>
      </trkpt>
      <trkpt lat="44.52399" lon="4.64336">
        <ele>339</ele>
        <time>2021-12-14T09:40:39+01:00</time>
      </trkpt>
      <trkpt lat="44.52371" lon="4.6427">
        <ele>339</ele>
        <time>2021-12-14T09:40:44+01:00</time>
      </trkpt>
      <trkpt lat="44.52255" lon="4.64151">
        <ele>339</ele>
        <time>2021-12-14T09:40:49+01:00</time>
      </trkpt>
      <trkpt lat="44.52185" lon="4.64058">
        <ele>338</ele>
        <time>2021-12-14T09:40:54+01:00</time>
      </trkpt>
      <trkpt lat="44.52135" lon="4.64019">
        <ele>336</ele>
        <time>2021-12-14T09:40:59+01:00</time>
      </trkpt>
      <trkpt lat="44.52071" lon="4.63971">
        <ele>327</ele>
        <time>2021-12-14T09:41:04+01:00</time>
      </trkpt>
      <trkpt lat="44.52055" lon="4.63907">
        <ele>320</ele>
        <time>2021-12-14T09:41:09+01:00</time>
      </trkpt>
      <trkpt lat="44.51935" lon="4.63795">
        <ele>293</ele>
        <time>2021-12-14T09:41:14+01:00</time>
      </trkpt>
      <trkpt lat="44.51788" lon="4.63822">
        <ele>274</ele>
        <time>2021-12-14T09:41:19+01:00</time>
      </trkpt>
      <trkpt lat="44.51628" lon="4.63802">
        <ele>267</ele>
        <time>2021-12-14T09:41:24+01:00</time>
      </trkpt>
      <trkpt lat="44.51506" lon="4.63713">
        <ele>257</ele>
        <time>2021-12-14T09:41:29+01:00</time>
      </trkpt>
      <trkpt lat="44.51392" lon="4.63635">
        <ele>256</ele>
        <time>2021-12-14T09:41:34+01:00</time>
      </trkpt>
      <trkpt lat="44.512" lon="4.63516">
        <ele>268</ele>
        <time>2021-12-14T09:41:39+01:00</time>
      </trkpt>
      <trkpt lat="44.51177" lon="4.63462">
        <ele>262</ele>
        <time>2021-12-14T09:41:44+01:00</time>
      </trkpt>
      <trkpt lat="44.51008" lon="4.63343">
        <ele>250</ele>
        <time>2021-12-14T09:41:49+01:00</time>
      </trkpt>
      <trkpt lat="44.50837" lon="4.6308">
        <ele>221</ele>
        <time>2021-12-14T09:41:54+01:00</time>
      </trkpt>
      <trkpt lat="44.50787" lon="4.63023">
        <ele>207</ele>
        <time>2021-12-14T09:41:59+01:00</time>
      </trkpt>
      <trkpt lat="44.50816" lon="4.63016">
        <ele>207</ele>
        <time>2021-12-14T09:42:04+01:00</time>
      </trkpt>
      <trkpt lat="44.50975" lon="4.63103">
        <ele>200</ele>
        <time>2021-12-14T09:42:09+01:00</time>
      </trkpt>
      <trkpt lat="44.50935" lon="4.63014">
        <ele>184</ele>
        <time>2021-12-14T09:42:14+01:00</time>
      </trkpt>
      <trkpt lat="44.50832" lon="4.62927">
        <ele>183</ele>
        <time>2021-12-14T09:42:19+01:00</time>
      </trkpt>
      <trkpt lat="44.50715" lon="4.62818">
        <ele>171</ele>
        <time>2021-12-14T09:42:24+01:00</time>
      </trkpt>
      <trkpt lat="44.50686" lon="4.62763">
        <ele>165</ele>
        <time>2021-12-14T09:42:29+01:00</time>
      </trkpt>
      <trkpt lat="44.50625" lon="4.6311">
        <ele>168</ele>
        <time>2021-12-14T09:42:34+01:00</time>
      </trkpt>
      <trkpt lat="44.5058" lon="4.6311">
        <ele>153</ele>
        <time>2021-12-14T09:42:39+01:00</time>
      </trkpt>
      <trkpt lat="44.50572" lon="4.63146">
        <ele>153</ele>
        <time>2021-12-14T09:42:44+01:00</time>
      </trkpt>
      <trkpt lat="44.50533" lon="4.63153">
        <ele>146</ele>
        <time>2021-12-14T09:42:49+01:00</time>
      </trkpt>
      <trkpt lat="44.5049" lon="4.63286">
        <ele>147</ele>
        <time>2021-12-14T09:42:54+01:00</time>
      </trkpt>
      <trkpt lat="44.50425" lon="4.63201">
        <ele>132</ele>
        <time>2021-12-14T09:42:59+01:00</time>
      </trkpt>
      <trkpt lat="44.5041" lon="4.63165">
        <ele>129</ele>
        <time>2021-12-14T09:43:04+01:00</time>
      </trkpt>
      <trkpt lat="44.50353" lon="4.63119">
        <ele>121</ele>
        <time>2021-12-14T09:43:09+01:00</time>
      </trkpt>
      <trkpt lat="44.50278" lon="4.63037">
        <ele>110</ele>
        <time>2021-12-14T09:43:14+01:00</time>
      </trkpt>
      <trkpt lat="44.50419" lon="4.62774">
        <ele>107</ele>
        <time>2021-12-14T09:43:19+01:00</time>
      </trkpt>
      <trkpt lat="44.50293" lon="4.62676">
        <ele>109</ele>
        <time>2021-12-14T09:43:24+01:00</time>
      </trkpt>
      <trkpt lat="44.50226" lon="4.62658">
        <ele>117</ele>
        <time>2021-12-14T09:43:29+01:00</time>
      </trkpt>
      <trkpt lat="44.50155" lon="4.6269">
        <ele>128</ele>
        <time>2021-12-14T09:43:34+01:00</time>
      </trkpt>
      <trkpt lat="44.50114" lon="4.62783">
        <ele>129</ele>
        <time>2021-12-14T09:43:39+01:00</time>
      </trkpt>
      <trkpt lat="44.5002" lon="4.62888">
        <ele>115</ele>
        <time>2021-12-14T09:43:44+01:00</time>
      </trkpt>
      <trkpt lat="44.49951" lon="4.62813">
        <ele>123</ele>
        <time>2021-12-14T09:43:49+01:00</time>
      </trkpt>
      <trkpt lat="44.49909" lon="4.62665">
        <ele>120</ele>
        <time>2021-12-14T09:43:54+01:00</time>
      </trkpt>
      <trkpt lat="44.49845" lon="4.62635">
        <ele>113</ele>
        <time>2021-12-14T09:43:59+01:00</time>
      </trkpt>
      <trkpt lat="44.4985" lon="4.62742">
        <ele>111</ele>
        <time>2021-12-14T09:44:04+01:00</time>
      </trkpt>
      <trkpt lat="44.49816" lon="4.62797">
        <ele>105</ele>
        <time>2021-12-14T09:44:09+01:00</time>
      </trkpt>
      <trkpt lat="44.49767" lon="4.6277">
        <ele>105</ele>
        <time>2021-12-14T09:44:14+01:00</time>
      </trkpt>
      <trkpt lat="44.49739" lon="4.62843">
        <ele>109</ele>
        <time>2021-12-14T09:44:19+01:00</time>
      </trkpt>
      <trkpt lat="44.49785" lon="4.62882">
        <ele>109</ele>
        <time>2021-12-14T09:44:24+01:00</time>
      </trkpt>
      <trkpt lat="44.49759" lon="4.62998">
        <ele>129</ele>
        <time>2021-12-14T09:44:29+01:00</time>
      </trkpt>
      <trkpt lat="44.49834" lon="4.6303">
        <ele>115</ele>
        <time>2021-12-14T09:44:34+01:00</time>
      </trkpt>
      <trkpt lat="44.49888" lon="4.63019">
        <ele>106</ele>
        <time>2021-12-14T09:44:39+01:00</time>
      </trkpt>
      <trkpt lat="44.49914" lon="4.63121">
        <ele>103</ele>
        <time>2021-12-14T09:44:44+01:00</time>
      </trkpt>
      <trkpt lat="44.49891" lon="4.63226">
        <ele>111</ele>
        <time>2021-12-14T09:44:49+01:00</time>
      </trkpt>
      <trkpt lat="44.49871" lon="4.63247">
        <ele>116</ele>
        <time>2021-12-14T09:44:54+01:00</time>
      </trkpt>
      <trkpt lat="44.4985" lon="4.63473">
        <ele>112</ele>
        <time>2021-12-14T09:44:59+01:00</time>
      </trkpt>
      <trkpt lat="44.49809" lon="4.63599">
        <ele>102</ele>
        <time>2021-12-14T09:45:04+01:00</time>
      </trkpt>
      <trkpt lat="44.49808" lon="4.63674">
        <ele>97</ele>
        <time>2021-12-14T09:45:09+01:00</time>
      </trkpt>
      <trkpt lat="44.49842" lon="4.63706">
        <ele>96</ele>
        <time>2021-12-14T09:45:14+01:00</time>
      </trkpt>
      <trkpt lat="44.49821" lon="4.63834">
        <ele>95</ele>
        <time>2021-12-14T09:45:19+01:00</time>
      </trkpt>
      <trkpt lat="44.49575" lon="4.63886">
        <ele>106</ele>
        <time>2021-12-14T09:45:24+01:00</time>
      </trkpt>
      <trkpt lat="44.49423" lon="4.64051">
        <ele>106</ele>
        <time>2021-12-14T09:45:29+01:00</time>
      </trkpt>
      <trkpt lat="44.49425" lon="4.64117">
        <ele>109</ele>
        <time>2021-12-14T09:45:34+01:00</time>
      </trkpt>
      <trkpt lat="44.49432" lon="4.64153">
        <ele>109</ele>
        <time>2021-12-14T09:45:39+01:00</time>
      </trkpt>
      <trkpt lat="44.49376" lon="4.64204">
        <ele>123</ele>
        <time>2021-12-14T09:45:44+01:00</time>
      </trkpt>
      <trkpt lat="44.49397" lon="4.64272">
        <ele>120</ele>
        <time>2021-12-14T09:45:49+01:00</time>
      </trkpt>
      <trkpt lat="44.49371" lon="4.64345">
        <ele>129</ele>
        <time>2021-12-14T09:45:54+01:00</time>
      </trkpt>
      <trkpt lat="44.49339" lon="4.64379">
        <ele>138</ele>
        <time>2021-12-14T09:45:59+01:00</time>
      </trkpt>
      <trkpt lat="44.49363" lon="4.644">
        <ele>133</ele>
        <time>2021-12-14T09:46:04+01:00</time>
      </trkpt>
      <trkpt lat="44.49404" lon="4.6451">
        <ele>129</ele>
        <time>2021-12-14T09:46:09+01:00</time>
      </trkpt>
      <trkpt lat="44.49389" lon="4.64571">
        <ele>130</ele>
        <time>2021-12-14T09:46:14+01:00</time>
      </trkpt>
      <trkpt lat="44.49324" lon="4.64745">
        <ele>135</ele>
        <time>2021-12-14T09:46:19+01:00</time>
      </trkpt>
      <trkpt lat="44.49254" lon="4.65005">
        <ele>123</ele>
        <time>2021-12-14T09:46:24+01:00</time>
      </trkpt>
      <trkpt lat="44.49236" lon="4.65058">
        <ele>122</ele>
        <time>2021-12-14T09:46:29+01:00</time>
      </trkpt>
      <trkpt lat="44.49234" lon="4.6514">
        <ele>122</ele>
        <time>2021-12-14T09:46:34+01:00</time>
      </trkpt>
      <trkpt lat="44.49259" lon="4.65206">
        <ele>116</ele>
        <time>2021-12-14T09:46:39+01:00</time>
      </trkpt>
      <trkpt lat="44.49256" lon="4.65286">
        <ele>116</ele>
        <time>2021-12-14T09:46:44+01:00</time>
      </trkpt>
      <trkpt lat="44.49301" lon="4.65414">
        <ele>110</ele>
        <time>2021-12-14T09:46:49+01:00</time>
      </trkpt>
      <trkpt lat="44.49298" lon="4.65469">
        <ele>109</ele>
        <time>2021-12-14T09:46:54+01:00</time>
      </trkpt>
      <trkpt lat="44.49303" lon="4.65624">
        <ele>105</ele>
        <time>2021-12-14T09:46:59+01:00</time>
      </trkpt>
      <trkpt lat="44.49337" lon="4.65802">
        <ele>93</ele>
        <time>2021-12-14T09:47:04+01:00</time>
      </trkpt>
      <trkpt lat="44.49304" lon="4.66065">
        <ele>78</ele>
        <time>2021-12-14T09:47:09+01:00</time>
      </trkpt>
      <trkpt lat="44.49218" lon="4.6609">
        <ele>77</ele>
        <time>2021-12-14T09:47:14+01:00</time>
      </trkpt>
      <trkpt lat="44.4907" lon="4.65985">
        <ele>78</ele>
        <time>2021-12-14T09:47:19+01:00</time>
      </trkpt>
      <trkpt lat="44.49057" lon="4.65845">
        <ele>88</ele>
        <time>2021-12-14T09:47:24+01:00</time>
      </trkpt>
      <trkpt lat="44.49023" lon="4.65864">
        <ele>88</ele>
        <time>2021-12-14T09:47:29+01:00</time>
      </trkpt>
      <trkpt lat="44.48858" lon="4.659">
        <ele>88</ele>
        <time>2021-12-14T09:47:34+01:00</time>
      </trkpt>
      <trkpt lat="44.48611" lon="4.66222">
        <ele>84</ele>
        <time>2021-12-14T09:47:39+01:00</time>
      </trkpt>
      <trkpt lat="44.48611" lon="4.66307">
        <ele>87</ele>
        <time>2021-12-14T09:47:44+01:00</time>
      </trkpt>
      <trkpt lat="44.48707" lon="4.66457">
        <ele>86</ele>
        <time>2021-12-14T09:47:49+01:00</time>
      </trkpt>
      <trkpt lat="44.48655" lon="4.66551">
        <ele>93</ele>
        <time>2021-12-14T09:47:54+01:00</time>
      </trkpt>
      <trkpt lat="44.4864" lon="4.66601">
        <ele>93</ele>
        <time>2021-12-14T09:47:59+01:00</time>
      </trkpt>
      <trkpt lat="44.48593" lon="4.66684">
        <ele>100</ele>
        <time>2021-12-14T09:48:04+01:00</time>
      </trkpt>
      <trkpt lat="44.48628" lon="4.66765">
        <ele>97</ele>
        <time>2021-12-14T09:48:09+01:00</time>
      </trkpt>
      <trkpt lat="44.48566" lon="4.66686">
        <ele>107</ele>
        <time>2021-12-14T09:48:14+01:00</time>
      </trkpt>
      <trkpt lat="44.4844" lon="4.66468">
        <ele>117</ele>
        <time>2021-12-14T09:48:19+01:00</time>
      </trkpt>
      <trkpt lat="44.48331" lon="4.66372">
        <ele>129</ele>
        <time>2021-12-14T09:48:24+01:00</time>
      </trkpt>
      <trkpt lat="44.48206" lon="4.66292">
        <ele>135</ele>
        <time>2021-12-14T09:48:29+01:00</time>
      </trkpt>
      <trkpt lat="44.48173" lon="4.66292">
        <ele>132</ele>
        <time>2021-12-14T09:48:34+01:00</time>
      </trkpt>
      <trkpt lat="44.48158" lon="4.66324">
        <ele>129</ele>
        <time>2021-12-14T09:48:39+01:00</time>
      </trkpt>
      <trkpt lat="44.48143" lon="4.6628">
        <ele>128</ele>
        <time>2021-12-14T09:48:44+01:00</time>
      </trkpt>
      <trkpt lat="44.48104" lon="4.66306">
        <ele>119</ele>
        <time>2021-12-14T09:48:49+01:00</time>
      </trkpt>
      <trkpt lat="44.4803" lon="4.66133">
        <ele>126</ele>
        <time>2021-12-14T09:48:54+01:00</time>
      </trkpt>
      <trkpt lat="44.47884" lon="4.66046">
        <ele>127</ele>
        <time>2021-12-14T09:48:59+01:00</time>
      </trkpt>
      <trkpt lat="44.4786" lon="4.65962">
        <ele>133</ele>
        <time>2021-12-14T09:49:04+01:00</time>
      </trkpt>
      <trkpt lat="44.47796" lon="4.65904">
        <ele>143</ele>
        <time>2021-12-14T09:49:09+01:00</time>
      </trkpt>
      <trkpt lat="44.47702" lon="4.65945">
        <ele>143</ele>
        <time>2021-12-14T09:49:14+01:00</time>
      </trkpt>
      <trkpt lat="44.47521" lon="4.65532">
        <ele>166</ele>
        <time>2021-12-14T09:49:19+01:00</time>
      </trkpt>
      <trkpt lat="44.47438" lon="4.65235">
        <ele>177</ele>
        <time>2021-12-14T09:49:24+01:00</time>
      </trkpt>
      <trkpt lat="44.47387" lon="4.6525">
        <ele>170</ele>
        <time>2021-12-14T09:49:29+01:00</time>
      </trkpt>
      <trkpt lat="44.47364" lon="4.65161">
        <ele>188</ele>
        <time>2021-12-14T09:49:34+01:00</time>
      </trkpt>
      <trkpt lat="44.47338" lon="4.65189">
        <ele>185</ele>
        <time>2021-12-14T09:49:39+01:00</time>
      </trkpt>
      <trkpt lat="44.47293" lon="4.65047">
        <ele>210</ele>
        <time>2021-12-14T09:49:44+01:00</time>
      </trkpt>
      <trkpt lat="44.47223" lon="4.64963">
        <ele>207</ele>
        <time>2021-12-14T09:49:49+01:00</time>
      </trkpt>
      <trkpt lat="44.47149" lon="4.64891">
        <ele>205</ele>
        <time>2021-12-14T09:49:54+01:00</time>
      </trkpt>
      <trkpt lat="44.47093" lon="4.64799">
        <ele>207</ele>
        <time>2021-12-14T09:49:59+01:00</time>
      </trkpt>
      <trkpt lat="44.47078" lon="4.64678">
        <ele>212</ele>
        <time>2021-12-14T09:50:04+01:00</time>
      </trkpt>
      <trkpt lat="44.47041" lon="4.64579">
        <ele>224</ele>
        <time>2021-12-14T09:50:09+01:00</time>
      </trkpt>
      <trkpt lat="44.46976" lon="4.64401">
        <ele>230</ele>
        <time>2021-12-14T09:50:14+01:00</time>
      </trkpt>
      <trkpt lat="44.46926" lon="4.64343">
        <ele>236</ele>
        <time>2021-12-14T09:50:19+01:00</time>
      </trkpt>
      <trkpt lat="44.46863" lon="4.64313">
        <ele>245</ele>
        <time>2021-12-14T09:50:24+01:00</time>
      </trkpt>
      <trkpt lat="44.46815" lon="4.64294">
        <ele>249</ele>
        <time>2021-12-14T09:50:29+01:00</time>
      </trkpt>
      <trkpt lat="44.46759" lon="4.64208">
        <ele>254</ele>
        <time>2021-12-14T09:50:34+01:00</time>
      </trkpt>
      <trkpt lat="44.46709" lon="4.64145">
        <ele>257</ele>
        <time>2021-12-14T09:50:39+01:00</time>
      </trkpt>
      <trkpt lat="44.46621" lon="4.64024">
        <ele>264</ele>
        <time>2021-12-14T09:50:44+01:00</time>
      </trkpt>
      <trkpt lat="44.46491" lon="4.63959">
        <ele>275</ele>
        <time>2021-12-14T09:50:49+01:00</time>
      </trkpt>
      <trkpt lat="44.46314" lon="4.63623">
        <ele>287</ele>
        <time>2021-12-14T09:50:54+01:00</time>
      </trkpt>
      <trkpt lat="44.46276" lon="4.63592">
        <ele>293</ele>
        <time>2021-12-14T09:50:59+01:00</time>
      </trkpt>
      <trkpt lat="44.46265" lon="4.63503">
        <ele>294</ele>
        <time>2021-12-14T09:51:04+01:00</time>
      </trkpt>
      <trkpt lat="44.46239" lon="4.63448">
        <ele>297</ele>
        <time>2021-12-14T09:51:09+01:00</time>
      </trkpt>
      <trkpt lat="44.4618" lon="4.63431">
        <ele>292</ele>
        <time>2021-12-14T09:51:14+01:00</time>
      </trkpt>
      <trkpt lat="44.46167" lon="4.63341">
        <ele>292</ele>
        <time>2021-12-14T09:51:19+01:00</time>
      </trkpt>
      <trkpt lat="44.46142" lon="4.63267">
        <ele>290</ele>
        <time>2021-12-14T09:51:24+01:00</time>
      </trkpt>
      <trkpt lat="44.46006" lon="4.63016">
        <ele>271</ele>
        <time>2021-12-14T09:51:29+01:00</time>
      </trkpt>
      <trkpt lat="44.46045" lon="4.62955">
        <ele>277</ele>
        <time>2021-12-14T09:51:34+01:00</time>
      </trkpt>
      <trkpt lat="44.46192" lon="4.63049">
        <ele>292</ele>
        <time>2021-12-14T09:51:39+01:00</time>
      </trkpt>
      <trkpt lat="44.46265" lon="4.63056">
        <ele>300</ele>
        <time>2021-12-14T09:51:44+01:00</time>
      </trkpt>
      <trkpt lat="44.46232" lon="4.63182">
        <ele>307</ele>
        <time>2021-12-14T09:51:49+01:00</time>
      </trkpt>
    </trkseg>
  </trk>
</gpx>